sensor_id;sensor_type;location;lat;lon;timestamp;temperature;humidity
20483;DHT22;10400;53.198;6.592;2022-09-03T00:00:54;17.60;99.90
20483;DHT22;10400;53.198;6.592;2022-09-03T00:03:32;17.50;99.90
20483;DHT22;10400;53.198;6.592;2022-09-03T00:09:33;17.50;99.90
20483;DHT22;10400;53.198;6.592;2022-09-03T00:11:59;17.50;99.90
20483;DHT22;10400;53.198;6.592;2022-09-03T00:14:31;17.50;99.90
20483;DHT22;10400;53.198;6.592;2022-09-03T00:17:06;17.50;99.90
20483;DHT22;10400;53.198;6.592;2022-09-03T00:19:38;17.50;99.90
20483;DHT22;10400;53.198;6.592;2022-09-03T00:22:13;17.50;99.90
20483;DHT22;10400;53.198;6.592;2022-09-03T00:24:41;17.50;99.90
20483;DHT22;10400;53.198;6.592;2022-09-03T00:27:14;17.40;99.90
20483;DHT22;10400;53.198;6.592;2022-09-03T00:29:56;17.40;99.90
20483;DHT22;10400;53.198;6.592;2022-09-03T00:35:27;17.30;99.90
20483;DHT22;10400;53.198;6.592;2022-09-03T00:37:54;17.30;99.90
20483;DHT22;10400;53.198;6.592;2022-09-03T00:40:55;17.20;99.90
20483;DHT22;10400;53.198;6.592;2022-09-03T00:43:46;17.20;99.90
20483;DHT22;10400;53.198;6.592;2022-09-03T00:49:18;17.10;99.90
20483;DHT22;10400;53.198;6.592;2022-09-03T00:54:40;17.10;99.90
20483;DHT22;10400;53.198;6.592;2022-09-03T01:00:08;17.00;99.90
20483;DHT22;10400;53.198;6.592;2022-09-03T01:13:49;16.90;99.90
20483;DHT22;10400;53.198;6.592;2022-09-03T01:30:41;16.70;99.90
20483;DHT22;10400;53.198;6.592;2022-09-03T01:36:07;16.70;99.90
20483;DHT22;10400;53.198;6.592;2022-09-03T01:41:45;16.70;99.90
20483;DHT22;10400;53.198;6.592;2022-09-03T01:50:15;16.60;99.90
20483;DHT22;10400;53.198;6.592;2022-09-03T01:52:55;16.60;99.90
20483;DHT22;10400;53.198;6.592;2022-09-03T01:58:34;16.60;99.90
20483;DHT22;10400;53.198;6.592;2022-09-03T02:01:06;16.60;99.90
20483;DHT22;10400;53.198;6.592;2022-09-03T02:03:37;16.60;99.90
20483;DHT22;10400;53.198;6.592;2022-09-03T02:06:06;16.60;99.90
20483;DHT22;10400;53.198;6.592;2022-09-03T02:08:32;16.60;99.90
20483;DHT22;10400;53.198;6.592;2022-09-03T02:10:58;16.50;99.90
20483;DHT22;10400;53.198;6.592;2022-09-03T02:16:05;16.50;99.90
20483;DHT22;10400;53.198;6.592;2022-09-03T02:18:46;16.40;99.90
20483;DHT22;10400;53.198;6.592;2022-09-03T02:21:17;16.30;99.90
20483;DHT22;10400;53.198;6.592;2022-09-03T02:23:44;16.30;99.90
20483;DHT22;10400;53.198;6.592;2022-09-03T02:26:12;16.20;99.90
20483;DHT22;10400;53.198;6.592;2022-09-03T02:28:39;16.10;99.90
20483;DHT22;10400;53.198;6.592;2022-09-03T02:31:04;16.00;99.90
20483;DHT22;10400;53.198;6.592;2022-09-03T02:33:38;16.00;99.90
20483;DHT22;10400;53.198;6.592;2022-09-03T02:36:06;16.00;99.90
20483;DHT22;10400;53.198;6.592;2022-09-03T02:38:32;15.80;99.90
20483;DHT22;10400;53.198;6.592;2022-09-03T02:40:57;15.80;99.90
20483;DHT22;10400;53.198;6.592;2022-09-03T02:43:38;15.80;99.90
20483;DHT22;10400;53.198;6.592;2022-09-03T02:46:09;15.70;99.90
20483;DHT22;10400;53.198;6.592;2022-09-03T02:48:37;15.60;99.90
20483;DHT22;10400;53.198;6.592;2022-09-03T02:51:02;15.60;99.90
20483;DHT22;10400;53.198;6.592;2022-09-03T02:53:28;15.60;99.90
20483;DHT22;10400;53.198;6.592;2022-09-03T02:55:58;15.60;99.90
20483;DHT22;10400;53.198;6.592;2022-09-03T02:58:24;15.50;99.90
20483;DHT22;10400;53.198;6.592;2022-09-03T03:00:51;15.50;99.90
20483;DHT22;10400;53.198;6.592;2022-09-03T03:03:17;15.40;99.90
20483;DHT22;10400;53.198;6.592;2022-09-03T03:05:45;15.40;99.90
20483;DHT22;10400;53.198;6.592;2022-09-03T03:08:13;15.40;99.90
20483;DHT22;10400;53.198;6.592;2022-09-03T03:10:46;15.40;99.90
20483;DHT22;10400;53.198;6.592;2022-09-03T03:13:12;15.30;99.90
20483;DHT22;10400;53.198;6.592;2022-09-03T03:15:38;15.30;99.90
20483;DHT22;10400;53.198;6.592;2022-09-03T03:18:04;15.30;99.90
20483;DHT22;10400;53.198;6.592;2022-09-03T03:20:30;15.30;99.90
20483;DHT22;10400;53.198;6.592;2022-09-03T03:22:56;15.30;99.90
20483;DHT22;10400;53.198;6.592;2022-09-03T03:25:21;15.30;99.90
20483;DHT22;10400;53.198;6.592;2022-09-03T03:27:47;15.30;99.90
20483;DHT22;10400;53.198;6.592;2022-09-03T03:30:13;15.30;99.90
20483;DHT22;10400;53.198;6.592;2022-09-03T03:32:38;15.40;99.90
20483;DHT22;10400;53.198;6.592;2022-09-03T03:35:05;15.30;99.90
20483;DHT22;10400;53.198;6.592;2022-09-03T03:37:32;15.40;99.90
20483;DHT22;10400;53.198;6.592;2022-09-03T03:39:58;15.50;99.90
20483;DHT22;10400;53.198;6.592;2022-09-03T03:42:24;15.40;99.90
20483;DHT22;10400;53.198;6.592;2022-09-03T03:44:49;15.50;99.90
20483;DHT22;10400;53.198;6.592;2022-09-03T03:47:15;15.50;99.90
20483;DHT22;10400;53.198;6.592;2022-09-03T03:49:43;15.50;99.90
20483;DHT22;10400;53.198;6.592;2022-09-03T03:52:09;15.40;99.90
20483;DHT22;10400;53.198;6.592;2022-09-03T03:54:35;15.50;99.90
20483;DHT22;10400;53.198;6.592;2022-09-03T03:57:00;15.50;99.90
20483;DHT22;10400;53.198;6.592;2022-09-03T03:59:26;15.50;99.90
20483;DHT22;10400;53.198;6.592;2022-09-03T04:01:54;15.50;99.90
20483;DHT22;10400;53.198;6.592;2022-09-03T04:04:20;15.50;99.90
20483;DHT22;10400;53.198;6.592;2022-09-03T04:06:46;15.40;99.90
20483;DHT22;10400;53.198;6.592;2022-09-03T04:09:12;15.40;99.90
20483;DHT22;10400;53.198;6.592;2022-09-03T04:11:37;15.50;99.90
20483;DHT22;10400;53.198;6.592;2022-09-03T04:14:03;15.40;99.90
20483;DHT22;10400;53.198;6.592;2022-09-03T04:16:29;15.50;99.90
20483;DHT22;10400;53.198;6.592;2022-09-03T04:18:56;15.60;99.90
20483;DHT22;10400;53.198;6.592;2022-09-03T04:21:26;15.60;99.90
20483;DHT22;10400;53.198;6.592;2022-09-03T04:23:53;15.60;99.90
20483;DHT22;10400;53.198;6.592;2022-09-03T04:26:22;15.40;99.90
20483;DHT22;10400;53.198;6.592;2022-09-03T04:28:47;15.50;99.90
20483;DHT22;10400;53.198;6.592;2022-09-03T04:31:17;15.50;99.90
20483;DHT22;10400;53.198;6.592;2022-09-03T04:33:43;15.50;99.90
20483;DHT22;10400;53.198;6.592;2022-09-03T04:36:11;15.50;99.90
20483;DHT22;10400;53.198;6.592;2022-09-03T04:38:39;15.50;99.90
20483;DHT22;10400;53.198;6.592;2022-09-03T04:41:10;15.50;99.90
20483;DHT22;10400;53.198;6.592;2022-09-03T04:43:36;15.50;99.90
20483;DHT22;10400;53.198;6.592;2022-09-03T04:46:06;15.40;99.90
20483;DHT22;10400;53.198;6.592;2022-09-03T04:48:35;15.40;99.90
20483;DHT22;10400;53.198;6.592;2022-09-03T04:53:35;15.40;99.90
20483;DHT22;10400;53.198;6.592;2022-09-03T04:56:01;15.40;99.90
20483;DHT22;10400;53.198;6.592;2022-09-03T04:58:27;15.30;99.90
20483;DHT22;10400;53.198;6.592;2022-09-03T05:00:53;15.30;99.90
20483;DHT22;10400;53.198;6.592;2022-09-03T05:03:19;15.40;99.90
20483;DHT22;10400;53.198;6.592;2022-09-03T05:05:54;15.40;99.90
20483;DHT22;10400;53.198;6.592;2022-09-03T05:08:20;15.30;99.90
20483;DHT22;10400;53.198;6.592;2022-09-03T05:10:46;15.30;99.90
20483;DHT22;10400;53.198;6.592;2022-09-03T05:13:12;15.30;99.90
20483;DHT22;10400;53.198;6.592;2022-09-03T05:15:37;15.30;99.90
20483;DHT22;10400;53.198;6.592;2022-09-03T05:18:03;15.30;99.90
20483;DHT22;10400;53.198;6.592;2022-09-03T05:20:29;15.40;99.90
20483;DHT22;10400;53.198;6.592;2022-09-03T05:22:56;15.40;99.90
20483;DHT22;10400;53.198;6.592;2022-09-03T05:25:25;15.30;99.90
20483;DHT22;10400;53.198;6.592;2022-09-03T05:27:51;15.40;99.90
20483;DHT22;10400;53.198;6.592;2022-09-03T05:30:18;15.40;99.90
20483;DHT22;10400;53.198;6.592;2022-09-03T05:32:47;15.30;99.90
20483;DHT22;10400;53.198;6.592;2022-09-03T05:35:13;15.40;99.90
20483;DHT22;10400;53.198;6.592;2022-09-03T05:37:38;15.50;99.90
20483;DHT22;10400;53.198;6.592;2022-09-03T05:40:04;15.50;99.90
20483;DHT22;10400;53.198;6.592;2022-09-03T05:42:30;15.50;99.90
20483;DHT22;10400;53.198;6.592;2022-09-03T05:44:59;15.50;99.90
20483;DHT22;10400;53.198;6.592;2022-09-03T05:47:25;15.50;99.90
20483;DHT22;10400;53.198;6.592;2022-09-03T05:49:50;15.50;99.90
20483;DHT22;10400;53.198;6.592;2022-09-03T05:52:16;15.50;99.90
20483;DHT22;10400;53.198;6.592;2022-09-03T05:54:44;15.50;99.90
20483;DHT22;10400;53.198;6.592;2022-09-03T05:57:09;15.60;99.90
20483;DHT22;10400;53.198;6.592;2022-09-03T05:59:35;15.50;99.90
20483;DHT22;10400;53.198;6.592;2022-09-03T06:02:00;15.50;99.90
20483;DHT22;10400;53.198;6.592;2022-09-03T06:04:26;15.60;99.90
20483;DHT22;10400;53.198;6.592;2022-09-03T06:06:52;15.60;99.90
20483;DHT22;10400;53.198;6.592;2022-09-03T06:09:19;15.60;99.90
20483;DHT22;10400;53.198;6.592;2022-09-03T06:11:46;15.60;99.90
20483;DHT22;10400;53.198;6.592;2022-09-03T06:14:13;15.50;99.90
20483;DHT22;10400;53.198;6.592;2022-09-03T06:16:45;15.70;99.90
20483;DHT22;10400;53.198;6.592;2022-09-03T06:19:13;15.70;99.90
20483;DHT22;10400;53.198;6.592;2022-09-03T06:21:43;15.60;99.90
20483;DHT22;10400;53.198;6.592;2022-09-03T06:24:11;15.70;99.90
20483;DHT22;10400;53.198;6.592;2022-09-03T06:26:37;15.70;99.90
20483;DHT22;10400;53.198;6.592;2022-09-03T06:29:03;15.80;99.90
20483;DHT22;10400;53.198;6.592;2022-09-03T06:31:29;15.80;99.90
20483;DHT22;10400;53.198;6.592;2022-09-03T06:33:55;15.90;99.90
20483;DHT22;10400;53.198;6.592;2022-09-03T06:36:22;16.00;99.90
20483;DHT22;10400;53.198;6.592;2022-09-03T06:38:51;16.10;99.90
20483;DHT22;10400;53.198;6.592;2022-09-03T06:41:19;16.20;99.90
20483;DHT22;10400;53.198;6.592;2022-09-03T06:43:46;16.30;99.90
20483;DHT22;10400;53.198;6.592;2022-09-03T06:46:14;16.40;99.90
20483;DHT22;10400;53.198;6.592;2022-09-03T06:48:40;16.40;99.90
20483;DHT22;10400;53.198;6.592;2022-09-03T06:51:07;16.50;99.90
20483;DHT22;10400;53.198;6.592;2022-09-03T06:53:35;16.60;99.90
20483;DHT22;10400;53.198;6.592;2022-09-03T06:56:03;16.60;99.90
20483;DHT22;10400;53.198;6.592;2022-09-03T06:58:34;16.60;99.90
20483;DHT22;10400;53.198;6.592;2022-09-03T07:01:22;16.70;99.90
20483;DHT22;10400;53.198;6.592;2022-09-03T07:03:52;16.80;99.90
20483;DHT22;10400;53.198;6.592;2022-09-03T07:06:21;16.90;99.90
20483;DHT22;10400;53.198;6.592;2022-09-03T07:08:47;17.10;99.90
20483;DHT22;10400;53.198;6.592;2022-09-03T07:11:16;17.20;99.90
20483;DHT22;10400;53.198;6.592;2022-09-03T07:13:45;17.30;99.90
20483;DHT22;10400;53.198;6.592;2022-09-03T07:16:35;17.40;99.90
20483;DHT22;10400;53.198;6.592;2022-09-03T07:19:03;17.40;99.90
20483;DHT22;10400;53.198;6.592;2022-09-03T07:21:30;17.40;99.90
20483;DHT22;10400;53.198;6.592;2022-09-03T07:23:58;17.50;99.90
20483;DHT22;10400;53.198;6.592;2022-09-03T07:26:28;17.50;99.90
20483;DHT22;10400;53.198;6.592;2022-09-03T07:28:55;17.60;99.90
20483;DHT22;10400;53.198;6.592;2022-09-03T07:31:26;17.70;99.90
20483;DHT22;10400;53.198;6.592;2022-09-03T07:33:53;17.80;99.90
20483;DHT22;10400;53.198;6.592;2022-09-03T07:36:21;17.90;99.90
20483;DHT22;10400;53.198;6.592;2022-09-03T07:38:47;18.00;99.90
20483;DHT22;10400;53.198;6.592;2022-09-03T07:41:14;18.20;99.90
20483;DHT22;10400;53.198;6.592;2022-09-03T07:43:44;18.20;99.90
20483;DHT22;10400;53.198;6.592;2022-09-03T07:46:20;18.20;99.90
20483;DHT22;10400;53.198;6.592;2022-09-03T07:48:49;18.30;99.90
20483;DHT22;10400;53.198;6.592;2022-09-03T07:51:17;18.40;99.90
20483;DHT22;10400;53.198;6.592;2022-09-03T07:53:44;18.40;99.90
20483;DHT22;10400;53.198;6.592;2022-09-03T07:56:10;18.50;99.90
20483;DHT22;10400;53.198;6.592;2022-09-03T07:58:37;18.50;99.90
20483;DHT22;10400;53.198;6.592;2022-09-03T08:01:08;18.60;99.90
20483;DHT22;10400;53.198;6.592;2022-09-03T08:03:35;18.70;99.90
20483;DHT22;10400;53.198;6.592;2022-09-03T08:06:02;18.90;99.90
20483;DHT22;10400;53.198;6.592;2022-09-03T08:08:28;19.00;99.90
20483;DHT22;10400;53.198;6.592;2022-09-03T08:10:55;19.10;99.90
20483;DHT22;10400;53.198;6.592;2022-09-03T08:13:22;19.20;99.90
20483;DHT22;10400;53.198;6.592;2022-09-03T08:15:54;19.20;99.90
20483;DHT22;10400;53.198;6.592;2022-09-03T08:18:21;19.20;99.90
20483;DHT22;10400;53.198;6.592;2022-09-03T08:20:47;19.30;99.90
20483;DHT22;10400;53.198;6.592;2022-09-03T08:23:13;19.40;99.90
20483;DHT22;10400;53.198;6.592;2022-09-03T08:25:39;19.50;99.90
20483;DHT22;10400;53.198;6.592;2022-09-03T08:28:04;19.50;99.90
20483;DHT22;10400;53.198;6.592;2022-09-03T08:30:30;19.60;99.90
20483;DHT22;10400;53.198;6.592;2022-09-03T08:32:56;19.80;99.90
20483;DHT22;10400;53.198;6.592;2022-09-03T08:35:22;19.80;99.90
20483;DHT22;10400;53.198;6.592;2022-09-03T08:37:48;19.90;99.90
20483;DHT22;10400;53.198;6.592;2022-09-03T08:40:16;19.90;99.90
20483;DHT22;10400;53.198;6.592;2022-09-03T08:42:51;19.80;99.90
20483;DHT22;10400;53.198;6.592;2022-09-03T08:45:20;20.00;99.90
20483;DHT22;10400;53.198;6.592;2022-09-03T08:47:51;20.10;99.90
20483;DHT22;10400;53.198;6.592;2022-09-03T08:50:31;20.20;99.90
20483;DHT22;10400;53.198;6.592;2022-09-03T08:53:23;20.20;99.90
20483;DHT22;10400;53.198;6.592;2022-09-03T08:56:03;20.30;99.90
20483;DHT22;10400;53.198;6.592;2022-09-03T08:58:33;20.40;99.90
20483;DHT22;10400;53.198;6.592;2022-09-03T09:01:05;20.50;99.90
20483;DHT22;10400;53.198;6.592;2022-09-03T09:03:48;20.60;99.90
20483;DHT22;10400;53.198;6.592;2022-09-03T09:06:22;20.80;99.90
20483;DHT22;10400;53.198;6.592;2022-09-03T09:12:11;20.90;99.90
20483;DHT22;10400;53.198;6.592;2022-09-03T09:25:38;21.10;99.90
20483;DHT22;10400;53.198;6.592;2022-09-03T09:28:18;21.20;99.90
20483;DHT22;10400;53.198;6.592;2022-09-03T09:30:48;21.20;99.90
20483;DHT22;10400;53.198;6.592;2022-09-03T09:33:15;21.30;99.90
20483;DHT22;10400;53.198;6.592;2022-09-03T09:35:42;21.40;99.90
20483;DHT22;10400;53.198;6.592;2022-09-03T09:38:09;21.60;99.90
20483;DHT22;10400;53.198;6.592;2022-09-03T09:40:43;21.80;99.90
20483;DHT22;10400;53.198;6.592;2022-09-03T09:43:15;21.90;99.90
20483;DHT22;10400;53.198;6.592;2022-09-03T09:45:43;22.10;99.90
20483;DHT22;10400;53.198;6.592;2022-09-03T09:48:30;22.20;99.90
20483;DHT22;10400;53.198;6.592;2022-09-03T09:51:08;22.40;99.90
20483;DHT22;10400;53.198;6.592;2022-09-03T09:53:34;22.40;99.90
20483;DHT22;10400;53.198;6.592;2022-09-03T09:56:00;22.40;99.90
20483;DHT22;10400;53.198;6.592;2022-09-03T09:58:30;22.40;99.90
20483;DHT22;10400;53.198;6.592;2022-09-03T10:01:11;22.50;99.90
20483;DHT22;10400;53.198;6.592;2022-09-03T10:03:56;22.50;99.90
20483;DHT22;10400;53.198;6.592;2022-09-03T10:06:24;22.60;99.90
20483;DHT22;10400;53.198;6.592;2022-09-03T10:09:18;22.70;99.90
20483;DHT22;10400;53.198;6.592;2022-09-03T10:14:38;22.90;99.90
20483;DHT22;10400;53.198;6.592;2022-09-03T10:23:34;23.10;99.90
20483;DHT22;10400;53.198;6.592;2022-09-03T10:28:24;23.20;99.90
20483;DHT22;10400;53.198;6.592;2022-09-03T10:33:40;23.30;99.90
20483;DHT22;10400;53.198;6.592;2022-09-03T10:36:20;23.50;99.90
20483;DHT22;10400;53.198;6.592;2022-09-03T10:38:59;23.50;99.90
20483;DHT22;10400;53.198;6.592;2022-09-03T10:54:59;24.10;99.90
20483;DHT22;10400;53.198;6.592;2022-09-03T11:00:07;24.30;99.90
20483;DHT22;10400;53.198;6.592;2022-09-03T11:08:02;24.20;99.90
20483;DHT22;10400;53.198;6.592;2022-09-03T11:10:32;24.10;99.90
20483;DHT22;10400;53.198;6.592;2022-09-03T11:13:01;24.30;99.90
20483;DHT22;10400;53.198;6.592;2022-09-03T11:15:39;24.60;99.90
20483;DHT22;10400;53.198;6.592;2022-09-03T11:18:19;24.60;99.90
20483;DHT22;10400;53.198;6.592;2022-09-03T11:20:46;24.60;99.90
20483;DHT22;10400;53.198;6.592;2022-09-03T11:23:14;24.60;99.90
20483;DHT22;10400;53.198;6.592;2022-09-03T11:25:49;24.60;99.90
20483;DHT22;10400;53.198;6.592;2022-09-03T11:28:43;24.70;99.90
20483;DHT22;10400;53.198;6.592;2022-09-03T11:33:57;24.80;99.90
20483;DHT22;10400;53.198;6.592;2022-09-03T11:36:33;24.80;99.90
20483;DHT22;10400;53.198;6.592;2022-09-03T11:39:00;24.80;99.90
20483;DHT22;10400;53.198;6.592;2022-09-03T11:41:37;24.70;99.90
20483;DHT22;10400;53.198;6.592;2022-09-03T11:44:19;24.80;99.90
20483;DHT22;10400;53.198;6.592;2022-09-03T11:46:56;24.90;99.90
20483;DHT22;10400;53.198;6.592;2022-09-03T11:49:31;25.10;99.90
20483;DHT22;10400;53.198;6.592;2022-09-03T11:52:06;25.10;99.90
20483;DHT22;10400;53.198;6.592;2022-09-03T11:54:43;25.20;99.90
20483;DHT22;10400;53.198;6.592;2022-09-03T11:57:15;25.20;99.90
20483;DHT22;10400;53.198;6.592;2022-09-03T11:59:46;25.30;99.90
20483;DHT22;10400;53.198;6.592;2022-09-03T12:02:30;25.10;99.90
20483;DHT22;10400;53.198;6.592;2022-09-03T12:10:44;25.30;99.90
20483;DHT22;10400;53.198;6.592;2022-09-03T12:13:44;25.40;99.90
20483;DHT22;10400;53.198;6.592;2022-09-03T12:18:55;25.20;99.90
20483;DHT22;10400;53.198;6.592;2022-09-03T12:21:25;25.30;99.90
20483;DHT22;10400;53.198;6.592;2022-09-03T12:23:51;25.30;99.90
20483;DHT22;10400;53.198;6.592;2022-09-03T12:26:20;25.40;99.90
20483;DHT22;10400;53.198;6.592;2022-09-03T12:28:50;25.30;99.90
20483;DHT22;10400;53.198;6.592;2022-09-03T12:33:58;25.30;99.90
20483;DHT22;10400;53.198;6.592;2022-09-03T12:36:25;25.60;99.90
20483;DHT22;10400;53.198;6.592;2022-09-03T12:38:51;25.50;99.90
20483;DHT22;10400;53.198;6.592;2022-09-03T12:41:22;25.50;99.90
20483;DHT22;10400;53.198;6.592;2022-09-03T12:43:52;25.60;99.90
20483;DHT22;10400;53.198;6.592;2022-09-03T12:46:22;25.70;99.90
20483;DHT22;10400;53.198;6.592;2022-09-03T12:48:58;25.60;99.90
20483;DHT22;10400;53.198;6.592;2022-09-03T12:51:41;25.70;99.90
20483;DHT22;10400;53.198;6.592;2022-09-03T12:54:10;25.70;99.90
20483;DHT22;10400;53.198;6.592;2022-09-03T12:56:54;25.60;99.90
20483;DHT22;10400;53.198;6.592;2022-09-03T12:59:21;25.50;99.90
20483;DHT22;10400;53.198;6.592;2022-09-03T13:01:54;25.50;99.90
20483;DHT22;10400;53.198;6.592;2022-09-03T13:04:26;25.50;99.90
20483;DHT22;10400;53.198;6.592;2022-09-03T13:09:29;25.60;99.90
20483;DHT22;10400;53.198;6.592;2022-09-03T13:11:56;25.80;99.90
20483;DHT22;10400;53.198;6.592;2022-09-03T13:14:27;25.80;99.90
20483;DHT22;10400;53.198;6.592;2022-09-03T13:22:58;26.10;99.90
20483;DHT22;10400;53.198;6.592;2022-09-03T13:28:18;25.80;99.90
20483;DHT22;10400;53.198;6.592;2022-09-03T13:33:21;25.90;99.90
20483;DHT22;10400;53.198;6.592;2022-09-03T13:36:04;26.00;99.90
20483;DHT22;10400;53.198;6.592;2022-09-03T13:38:42;26.00;99.90
20483;DHT22;10400;53.198;6.592;2022-09-03T13:44:48;25.90;99.90
20483;DHT22;10400;53.198;6.592;2022-09-03T13:47:23;26.10;99.90
20483;DHT22;10400;53.198;6.592;2022-09-03T13:50:03;25.80;99.90
20483;DHT22;10400;53.198;6.592;2022-09-03T13:53:03;26.00;99.90
20483;DHT22;10400;53.198;6.592;2022-09-03T13:55:44;26.00;99.90
20483;DHT22;10400;53.198;6.592;2022-09-03T13:58:30;26.10;99.90
20483;DHT22;10400;53.198;6.592;2022-09-03T14:03:45;26.10;99.90
20483;DHT22;10400;53.198;6.592;2022-09-03T14:06:19;26.10;99.90
20483;DHT22;10400;53.198;6.592;2022-09-03T14:09:04;26.10;99.90
20483;DHT22;10400;53.198;6.592;2022-09-03T14:11:45;26.10;99.90
20483;DHT22;10400;53.198;6.592;2022-09-03T14:17:11;26.10;99.90
20483;DHT22;10400;53.198;6.592;2022-09-03T14:19:51;26.20;99.90
20483;DHT22;10400;53.198;6.592;2022-09-03T14:25:21;26.50;99.90
20483;DHT22;10400;53.198;6.592;2022-09-03T14:27:47;26.50;99.90
20483;DHT22;10400;53.198;6.592;2022-09-03T14:56:48;26.60;99.90
20483;DHT22;10400;53.198;6.592;2022-09-03T14:59:23;26.60;99.90
20483;DHT22;10400;53.198;6.592;2022-09-03T15:07:48;26.60;99.90
20483;DHT22;10400;53.198;6.592;2022-09-03T15:13:11;26.70;99.90
20483;DHT22;10400;53.198;6.592;2022-09-03T15:21:00;26.20;99.90
20483;DHT22;10400;53.198;6.592;2022-09-03T15:34:54;26.40;99.90
20483;DHT22;10400;53.198;6.592;2022-09-03T15:40:06;26.30;99.90
20483;DHT22;10400;53.198;6.592;2022-09-03T15:42:32;26.30;99.90
20483;DHT22;10400;53.198;6.592;2022-09-03T15:47:50;26.60;99.90
20483;DHT22;10400;53.198;6.592;2022-09-03T15:50:51;26.60;99.90
20483;DHT22;10400;53.198;6.592;2022-09-03T15:58:43;26.40;99.90
20483;DHT22;10400;53.198;6.592;2022-09-03T16:01:26;26.50;99.90
20483;DHT22;10400;53.198;6.592;2022-09-03T16:04:41;26.40;99.90
20483;DHT22;10400;53.198;6.592;2022-09-03T16:07:27;26.10;99.90
20483;DHT22;10400;53.198;6.592;2022-09-03T16:10:18;26.10;99.90
20483;DHT22;10400;53.198;6.592;2022-09-03T16:15:25;25.90;99.90
20483;DHT22;10400;53.198;6.592;2022-09-03T16:21:21;25.70;99.90
20483;DHT22;10400;53.198;6.592;2022-09-03T16:27:14;25.80;99.90
20483;DHT22;10400;53.198;6.592;2022-09-03T16:29:40;26.10;99.90
20483;DHT22;10400;53.198;6.592;2022-09-03T16:32:16;26.10;99.90
20483;DHT22;10400;53.198;6.592;2022-09-03T16:34:56;26.10;99.90
20483;DHT22;10400;53.198;6.592;2022-09-03T16:46:24;26.20;99.90
20483;DHT22;10400;53.198;6.592;2022-09-03T16:49:12;26.20;99.90
20483;DHT22;10400;53.198;6.592;2022-09-03T17:00:07;26.10;99.90
20483;DHT22;10400;53.198;6.592;2022-09-03T17:05:36;26.30;99.90
20483;DHT22;10400;53.198;6.592;2022-09-03T17:08:12;26.20;99.90
20483;DHT22;10400;53.198;6.592;2022-09-03T17:16:37;25.50;99.90
20483;DHT22;10400;53.198;6.592;2022-09-03T17:24:49;25.10;99.90
20483;DHT22;10400;53.198;6.592;2022-09-03T17:27:55;24.90;99.90
20483;DHT22;10400;53.198;6.592;2022-09-03T17:41:23;24.40;99.90
20483;DHT22;10400;53.198;6.592;2022-09-03T17:44:03;24.30;99.90
20483;DHT22;10400;53.198;6.592;2022-09-03T17:49:33;24.10;99.90
20483;DHT22;10400;53.198;6.592;2022-09-03T17:55:09;23.80;99.90
20483;DHT22;10400;53.198;6.592;2022-09-03T17:57:49;23.70;99.90
20483;DHT22;10400;53.198;6.592;2022-09-03T18:00:52;23.60;99.90
20483;DHT22;10400;53.198;6.592;2022-09-03T18:09:11;23.10;99.90
20483;DHT22;10400;53.198;6.592;2022-09-03T18:11:49;23.10;99.90
20483;DHT22;10400;53.198;6.592;2022-09-03T18:14:22;23.00;99.90
20483;DHT22;10400;53.198;6.592;2022-09-03T18:20:09;22.90;99.90
20483;DHT22;10400;53.198;6.592;2022-09-03T18:25:48;22.60;99.90
20483;DHT22;10400;53.198;6.592;2022-09-03T18:28:40;22.40;99.90
20483;DHT22;10400;53.198;6.592;2022-09-03T18:31:25;22.40;99.90
20483;DHT22;10400;53.198;6.592;2022-09-03T18:34:10;22.30;99.90
20483;DHT22;10400;53.198;6.592;2022-09-03T18:36:57;22.10;99.90
20483;DHT22;10400;53.198;6.592;2022-09-03T18:39:44;22.00;99.90
20483;DHT22;10400;53.198;6.592;2022-09-03T18:46:13;21.90;99.90
20483;DHT22;10400;53.198;6.592;2022-09-03T18:49:08;21.90;99.90
20483;DHT22;10400;53.198;6.592;2022-09-03T19:10:27;21.40;99.90
20483;DHT22;10400;53.198;6.592;2022-09-03T19:16:16;21.50;99.90
20483;DHT22;10400;53.198;6.592;2022-09-03T19:22:09;21.40;99.90
20483;DHT22;10400;53.198;6.592;2022-09-03T19:25:12;21.40;99.90
20483;DHT22;10400;53.198;6.592;2022-09-03T19:37:26;21.10;99.90
20483;DHT22;10400;53.198;6.592;2022-09-03T19:46:36;21.00;99.90
20483;DHT22;10400;53.198;6.592;2022-09-03T19:55:15;20.90;99.90
20483;DHT22;10400;53.198;6.592;2022-09-03T19:58:01;20.90;99.90
20483;DHT22;10400;53.198;6.592;2022-09-03T20:00:45;20.80;99.90
20483;DHT22;10400;53.198;6.592;2022-09-03T20:03:30;20.80;99.90
20483;DHT22;10400;53.198;6.592;2022-09-03T20:06:14;20.80;99.90
20483;DHT22;10400;53.198;6.592;2022-09-03T20:09:03;20.70;99.90
20483;DHT22;10400;53.198;6.592;2022-09-03T20:11:48;20.70;99.90
20483;DHT22;10400;53.198;6.592;2022-09-03T20:14:15;20.60;99.90
20483;DHT22;10400;53.198;6.592;2022-09-03T20:19:42;20.50;99.90
20483;DHT22;10400;53.198;6.592;2022-09-03T20:30:21;20.30;99.90
20483;DHT22;10400;53.198;6.592;2022-09-03T20:41:23;20.30;99.90
20483;DHT22;10400;53.198;6.592;2022-09-03T20:52:21;20.10;99.90
20483;DHT22;10400;53.198;6.592;2022-09-03T20:55:14;20.10;99.90
20483;DHT22;10400;53.198;6.592;2022-09-03T20:58:12;20.10;99.90
20483;DHT22;10400;53.198;6.592;2022-09-03T21:01:01;20.00;99.90
20483;DHT22;10400;53.198;6.592;2022-09-03T21:05:58;19.80;99.90
20483;DHT22;10400;53.198;6.592;2022-09-03T21:11:17;19.80;99.90
20483;DHT22;10400;53.198;6.592;2022-09-03T21:16:32;19.80;99.90
20483;DHT22;10400;53.198;6.592;2022-09-03T21:19:21;19.80;99.90
20483;DHT22;10400;53.198;6.592;2022-09-03T21:26:56;19.70;99.90
20483;DHT22;10400;53.198;6.592;2022-09-03T21:29:26;19.70;99.90
20483;DHT22;10400;53.198;6.592;2022-09-03T21:32:16;19.60;99.90
20483;DHT22;10400;53.198;6.592;2022-09-03T21:34:54;19.50;99.90
20483;DHT22;10400;53.198;6.592;2022-09-03T21:37:23;19.50;99.90
20483;DHT22;10400;53.198;6.592;2022-09-03T21:39:55;19.50;99.90
20483;DHT22;10400;53.198;6.592;2022-09-03T21:45:26;19.40;99.90
20483;DHT22;10400;53.198;6.592;2022-09-03T21:48:15;19.40;99.90
20483;DHT22;10400;53.198;6.592;2022-09-03T21:50:50;19.40;99.90
20483;DHT22;10400;53.198;6.592;2022-09-03T21:53:29;19.30;99.90
20483;DHT22;10400;53.198;6.592;2022-09-03T22:04:13;19.20;99.90
20483;DHT22;10400;53.198;6.592;2022-09-03T22:14:43;19.10;99.90
20483;DHT22;10400;53.198;6.592;2022-09-03T22:17:21;19.10;99.90
20483;DHT22;10400;53.198;6.592;2022-09-03T22:19:50;19.00;99.90
20483;DHT22;10400;53.198;6.592;2022-09-03T22:22:27;19.00;99.90
20483;DHT22;10400;53.198;6.592;2022-09-03T22:27:57;19.00;99.90
20483;DHT22;10400;53.198;6.592;2022-09-03T22:30:28;18.90;99.90
20483;DHT22;10400;53.198;6.592;2022-09-03T22:33:22;18.90;99.90
20483;DHT22;10400;53.198;6.592;2022-09-03T22:36:00;18.90;99.90
20483;DHT22;10400;53.198;6.592;2022-09-03T22:44:08;18.70;99.90
20483;DHT22;10400;53.198;6.592;2022-09-03T22:47:00;18.70;99.90